sensor_id;sensor_type;location;lat;lon;timestamp;P1;durP1;ratioP1;P2;durP2;ratioP2
1959;SDS011;980;43.794;11.212;2023-09-08T17:49:51;17.33;;;16.67;;
1959;SDS011;980;43.794;11.212;2023-09-08T17:52:16;18.33;;;16.67;;
1959;SDS011;980;43.794;11.212;2023-09-08T17:54:41;18.00;;;18.00;;
1959;SDS011;980;43.794;11.212;2023-09-08T17:57:07;21.00;;;20.33;;
1959;SDS011;980;43.794;11.212;2023-09-08T17:59:32;19.00;;;18.67;;
1959;SDS011;980;43.794;11.212;2023-09-08T18:01:57;19.00;;;17.00;;
1959;SDS011;980;43.794;11.212;2023-09-08T18:04:22;18.33;;;16.33;;
1959;SDS011;980;43.794;11.212;2023-09-08T18:06:48;16.67;;;16.00;;
1959;SDS011;980;43.794;11.212;2023-09-08T18:09:31;18.67;;;16.33;;
1959;SDS011;980;43.794;11.212;2023-09-08T18:11:56;16.50;;;16.50;;
1959;SDS011;980;43.794;11.212;2023-09-08T18:14:22;20.00;;;18.67;;
1959;SDS011;980;43.794;11.212;2023-09-08T18:16:47;17.00;;;14.67;;
1959;SDS011;980;43.794;11.212;2023-09-08T18:19:14;17.25;;;17.25;;
1959;SDS011;980;43.794;11.212;2023-09-08T18:21:40;16.67;;;16.67;;
1959;SDS011;980;43.794;11.212;2023-09-08T18:24:05;15.00;;;15.00;;
1959;SDS011;980;43.794;11.212;2023-09-08T18:26:30;17.00;;;16.33;;
1959;SDS011;980;43.794;11.212;2023-09-08T18:28:56;19.33;;;18.33;;
1959;SDS011;980;43.794;11.212;2023-09-08T18:31:21;17.67;;;17.67;;
1959;SDS011;980;43.794;11.212;2023-09-08T18:33:46;17.33;;;17.00;;
1959;SDS011;980;43.794;11.212;2023-09-08T18:36:11;28.00;;;25.33;;
1959;SDS011;980;43.794;11.212;2023-09-08T18:38:37;19.00;;;17.33;;
1959;SDS011;980;43.794;11.212;2023-09-08T18:41:02;19.33;;;18.67;;
1959;SDS011;980;43.794;11.212;2023-09-08T18:43:27;22.00;;;21.00;;
1959;SDS011;980;43.794;11.212;2023-09-08T18:45:52;24.00;;;24.00;;
1959;SDS011;980;43.794;11.212;2023-09-08T18:48:18;28.33;;;25.67;;
1959;SDS011;980;43.794;11.212;2023-09-08T18:50:43;21.67;;;21.67;;
1959;SDS011;980;43.794;11.212;2023-09-08T18:53:12;20.00;;;20.00;;
1959;SDS011;980;43.794;11.212;2023-09-08T18:55:37;21.50;;;20.25;;
1959;SDS011;980;43.794;11.212;2023-09-08T18:58:03;34.50;;;31.75;;
1959;SDS011;980;43.794;11.212;2023-09-08T19:00:30;36.50;;;32.50;;
1959;SDS011;980;43.794;11.212;2023-09-08T19:02:55;17.67;;;17.33;;
1959;SDS011;980;43.794;11.212;2023-09-08T19:05:20;16.67;;;15.00;;
1959;SDS011;980;43.794;11.212;2023-09-08T19:07:46;20.33;;;20.00;;
1959;SDS011;980;43.794;11.212;2023-09-08T19:10:11;20.67;;;20.67;;
1959;SDS011;980;43.794;11.212;2023-09-08T19:12:36;15.00;;;14.00;;
1959;SDS011;980;43.794;11.212;2023-09-08T19:15:02;16.67;;;16.67;;
1959;SDS011;980;43.794;11.212;2023-09-08T19:17:28;18.67;;;17.33;;
1959;SDS011;980;43.794;11.212;2023-09-08T19:19:54;18.67;;;18.00;;
1959;SDS011;980;43.794;11.212;2023-09-08T19:22:19;19.67;;;18.67;;
1959;SDS011;980;43.794;11.212;2023-09-08T19:24:45;17.67;;;16.00;;
1959;SDS011;980;43.794;11.212;2023-09-08T19:27:10;19.67;;;18.00;;
1959;SDS011;980;43.794;11.212;2023-09-08T19:29:37;15.50;;;15.50;;
1959;SDS011;980;43.794;11.212;2023-09-08T19:32:02;18.67;;;17.33;;
1959;SDS011;980;43.794;11.212;2023-09-08T19:34:27;23.00;;;19.67;;
1959;SDS011;980;43.794;11.212;2023-09-08T19:36:53;30.00;;;26.50;;
1959;SDS011;980;43.794;11.212;2023-09-08T19:39:19;20.00;;;18.67;;
1959;SDS011;980;43.794;11.212;2023-09-08T19:41:44;20.00;;;19.67;;
1959;SDS011;980;43.794;11.212;2023-09-08T19:44:09;17.67;;;17.33;;
1959;SDS011;980;43.794;11.212;2023-09-08T19:46:34;21.00;;;20.67;;
1959;SDS011;980;43.794;11.212;2023-09-08T19:49:01;17.75;;;17.00;;
1959;SDS011;980;43.794;11.212;2023-09-08T19:51:26;15.67;;;14.67;;
1959;SDS011;980;43.794;11.212;2023-09-08T19:53:51;15.67;;;15.67;;
1959;SDS011;980;43.794;11.212;2023-09-08T19:56:16;14.67;;;14.67;;
1959;SDS011;980;43.794;11.212;2023-09-08T19:58:42;17.00;;;15.67;;
1959;SDS011;980;43.794;11.212;2023-09-08T20:01:08;15.33;;;15.00;;
1959;SDS011;980;43.794;11.212;2023-09-08T20:03:34;18.00;;;18.00;;
1959;SDS011;980;43.794;11.212;2023-09-08T20:05:59;16.00;;;15.33;;
1959;SDS011;980;43.794;11.212;2023-09-08T20:08:25;16.67;;;15.00;;
1959;SDS011;980;43.794;11.212;2023-09-08T20:10:51;19.00;;;16.00;;
1959;SDS011;980;43.794;11.212;2023-09-08T20:13:17;17.33;;;14.67;;
1959;SDS011;980;43.794;11.212;2023-09-08T20:15:42;15.67;;;14.67;;
1959;SDS011;980;43.794;11.212;2023-09-08T20:18:08;17.00;;;16.67;;
1959;SDS011;980;43.794;11.212;2023-09-08T20:20:33;15.67;;;15.67;;
1959;SDS011;980;43.794;11.212;2023-09-08T20:22:59;14.00;;;13.00;;
1959;SDS011;980;43.794;11.212;2023-09-08T20:25:24;14.33;;;14.33;;
1959;SDS011;980;43.794;11.212;2023-09-08T20:27:50;16.67;;;16.00;;
1959;SDS011;980;43.794;11.212;2023-09-08T20:30:16;17.00;;;15.00;;
1959;SDS011;980;43.794;11.212;2023-09-08T20:32:41;14.33;;;14.00;;
1959;SDS011;980;43.794;11.212;2023-09-08T20:35:06;14.67;;;14.67;;
1959;SDS011;980;43.794;11.212;2023-09-08T20:37:33;17.00;;;16.00;;
1959;SDS011;980;43.794;11.212;2023-09-08T20:39:59;13.67;;;13.00;;
1959;SDS011;980;43.794;11.212;2023-09-08T20:42:24;14.00;;;13.00;;
1959;SDS011;980;43.794;11.212;2023-09-08T20:44:49;13.67;;;12.33;;
1959;SDS011;980;43.794;11.212;2023-09-08T20:47:14;15.67;;;14.67;;
1959;SDS011;980;43.794;11.212;2023-09-08T20:49:41;15.00;;;13.67;;
1959;SDS011;980;43.794;11.212;2023-09-08T20:52:07;15.00;;;15.00;;
1959;SDS011;980;43.794;11.212;2023-09-08T20:54:36;15.00;;;14.33;;
1959;SDS011;980;43.794;11.212;2023-09-08T20:57:02;14.33;;;14.33;;
1959;SDS011;980;43.794;11.212;2023-09-08T20:59:27;16.33;;;16.33;;
1959;SDS011;980;43.794;11.212;2023-09-08T21:01:53;15.00;;;14.33;;
1959;SDS011;980;43.794;11.212;2023-09-08T21:04:18;15.00;;;15.00;;
1959;SDS011;980;43.794;11.212;2023-09-08T21:06:44;12.33;;;12.33;;
1959;SDS011;980;43.794;11.212;2023-09-08T21:09:10;14.67;;;13.33;;
1959;SDS011;980;43.794;11.212;2023-09-08T21:11:35;15.00;;;15.00;;
1959;SDS011;980;43.794;11.212;2023-09-08T21:14:00;15.67;;;14.00;;
1959;SDS011;980;43.794;11.212;2023-09-08T21:16:26;15.00;;;15.00;;
1959;SDS011;980;43.794;11.212;2023-09-08T21:18:52;13.33;;;13.33;;
1959;SDS011;980;43.794;11.212;2023-09-08T21:21:18;14.33;;;14.00;;
1959;SDS011;980;43.794;11.212;2023-09-08T21:23:43;16.00;;;15.00;;
1959;SDS011;980;43.794;11.212;2023-09-08T21:26:08;15.33;;;15.33;;
1959;SDS011;980;43.794;11.212;2023-09-08T21:28:34;16.00;;;16.00;;
1959;SDS011;980;43.794;11.212;2023-09-08T21:31:05;14.67;;;14.67;;
1959;SDS011;980;43.794;11.212;2023-09-08T21:33:32;21.00;;;17.33;;
1959;SDS011;980;43.794;11.212;2023-09-08T21:35:58;15.33;;;13.67;;
1959;SDS011;980;43.794;11.212;2023-09-08T21:38:23;12.67;;;12.67;;
1959;SDS011;980;43.794;11.212;2023-09-08T21:40:49;15.67;;;14.33;;
1959;SDS011;980;43.794;11.212;2023-09-08T21:43:14;17.00;;;16.00;;
1959;SDS011;980;43.794;11.212;2023-09-08T21:45:39;15.00;;;14.00;;
1959;SDS011;980;43.794;11.212;2023-09-08T21:48:04;15.00;;;15.00;;
1959;SDS011;980;43.794;11.212;2023-09-08T21:50:30;14.33;;;13.67;;
1959;SDS011;980;43.794;11.212;2023-09-08T21:52:56;15.00;;;14.00;;
1959;SDS011;980;43.794;11.212;2023-09-08T21:55:21;14.00;;;12.33;;
1959;SDS011;980;43.794;11.212;2023-09-08T21:57:49;15.67;;;15.67;;
1959;SDS011;980;43.794;11.212;2023-09-08T22:00:14;13.67;;;13.67;;
1959;SDS011;980;43.794;11.212;2023-09-08T22:02:40;15.67;;;15.00;;
1959;SDS011;980;43.794;11.212;2023-09-08T22:05:06;17.33;;;15.00;;
1959;SDS011;980;43.794;11.212;2023-09-08T22:07:31;14.00;;;13.00;;
1959;SDS011;980;43.794;11.212;2023-09-08T22:09:56;17.00;;;15.00;;
1959;SDS011;980;43.794;11.212;2023-09-08T22:12:22;17.00;;;17.00;;
1959;SDS011;980;43.794;11.212;2023-09-08T22:14:50;13.67;;;13.67;;
1959;SDS011;980;43.794;11.212;2023-09-08T22:17:15;15.00;;;13.67;;
1959;SDS011;980;43.794;11.212;2023-09-08T22:19:41;14.00;;;14.00;;
